Time;durP1;ratioP1;P1;durP2;ratioP2;P2;SDS_P1;SDS_P2;PMS_P1;PMS_P2;Temp;Humidity;BMP_temperature;BMP_pressure;BME280_temperature;BME280_humidity;BME280_pressure;Samples;Min_cycle;Max_cycle;Signal;HPM_P1;HPM_P2
2022/04/10 00:00:45;;;;;;;10.40;6.20;;;;;4.30;101372.00;;;;10502381;28;20204;-81
2022/04/10 00:05:47;;;;;;;10.50;5.90;;;;;4.60;101369.00;;;;10517310;28;20210;-81
2022/04/10 00:10:49;;;;;;;14.17;6.40;;;;;4.80;101373.00;;;;10499204;28;20200;-81
2022/04/10 00:15:51;;;;;;;12.53;6.77;;;;;4.90;101368.00;;;;10539190;28;20238;-81
2022/04/10 00:20:53;;;;;;;8.57;5.93;;;;;4.90;101364.00;;;;10498111;27;20700;-81
2022/04/10 00:25:55;;;;;;;10.00;5.97;;;;;5.00;101357.00;;;;10538965;28;20216;-81
2022/04/10 00:30:57;;;;;;;13.23;6.90;;;;;4.90;101362.00;;;;10507864;28;20196;-81
2022/04/10 00:36:02;;;;;;;7.80;5.63;;;;;4.80;101350.00;;;;10555225;28;20242;-81
2022/04/10 00:41:05;;;;;;;9.77;5.80;;;;;4.70;101349.00;;;;10485784;28;20208;-81
2022/04/10 00:46:08;;;;;;;7.60;5.07;;;;;4.60;101355.00;;;;10510364;28;20201;-81
2022/04/10 00:56:31;;;;;;;11.57;6.30;;;;;4.50;101361.00;;;;10554634;28;20196;-81
2022/04/10 01:01:34;;;;;;;7.07;5.00;;;;;4.50;101355.00;;;;10513484;28;20208;-82
2022/04/10 01:06:59;;;;;;;7.93;5.40;;;;;4.50;101362.00;;;;10550801;28;20180;-81
2022/04/10 01:12:03;;;;;;;6.03;5.10;;;;;4.40;101363.00;;;;10513115;28;20185;-81
2022/04/10 01:17:10;;;;;;;6.57;5.37;;;;;4.40;101366.00;;;;10513880;28;20199;-81
2022/04/10 01:22:40;;;;;;;11.00;5.83;;;;;4.40;101365.00;;;;10542863;27;20288;-82
2022/04/10 01:27:46;;;;;;;10.63;5.03;;;;;4.40;101365.00;;;;10547273;28;20232;-82
2022/04/10 01:32:50;;;;;;;9.40;5.30;;;;;4.30;101364.00;;;;10519384;28;20215;-81
2022/04/10 01:37:54;;;;;;;10.03;5.90;;;;;4.30;101360.00;;;;10508978;28;20254;-81
2022/04/10 01:43:01;;;;;;;10.33;6.40;;;;;4.30;101364.00;;;;10497586;28;20268;-81
2022/04/10 01:48:05;;;;;;;11.33;6.50;;;;;4.30;101352.00;;;;10533194;28;20200;-81
2022/04/10 01:53:07;;;;;;;9.37;5.57;;;;;4.40;101344.00;;;;10526392;28;20189;-82
2022/04/10 01:58:10;;;;;;;8.50;6.43;;;;;4.40;101350.00;;;;10548774;28;20238;-82
2022/04/10 02:03:12;;;;;;;11.03;7.10;;;;;4.30;101362.00;;;;10527383;28;20242;-81
2022/04/10 02:08:15;;;;;;;8.70;6.10;;;;;4.10;101351.00;;;;10510192;28;20196;-81
2022/04/10 02:13:19;;;;;;;9.40;6.43;;;;;3.90;101355.00;;;;10509154;28;20271;-81
2022/04/10 02:18:21;;;;;;;11.10;6.47;;;;;3.70;101361.00;;;;10531381;28;20193;-81
2022/04/10 02:23:24;;;;;;;7.83;6.00;;;;;3.50;101366.00;;;;10535303;27;20210;-82
2022/04/10 02:28:26;;;;;;;12.83;6.60;;;;;3.40;101367.00;;;;10489324;28;20184;-81
2022/04/10 02:33:28;;;;;;;11.73;6.60;;;;;3.20;101365.00;;;;10518118;28;20665;-81
2022/04/10 02:38:30;;;;;;;8.47;5.73;;;;;3.00;101359.00;;;;10547938;28;20257;-81
2022/04/10 02:43:32;;;;;;;9.37;5.57;;;;;2.90;101374.00;;;;10516977;28;20201;-81
2022/04/10 02:48:38;;;;;;;16.97;6.70;;;;;2.70;101371.00;;;;10506433;28;20303;-82
2022/04/10 02:53:43;;;;;;;13.00;6.67;;;;;2.70;101378.00;;;;10496769;28;20204;-82
2022/04/10 02:59:04;;;;;;;11.97;6.60;;;;;2.80;101379.00;;;;10563035;28;20188;-81
2022/04/10 03:04:25;;;;;;;12.60;7.27;;;;;2.80;101389.00;;;;10512464;28;20196;-82
2022/04/10 03:09:45;;;;;;;12.07;7.10;;;;;2.90;101393.00;;;;10517354;28;20527;-81
2022/04/10 03:15:07;;;;;;;11.07;7.10;;;;;2.80;101398.00;;;;10522493;28;20185;-82
2022/04/10 03:20:29;;;;;;;13.13;7.33;;;;;2.80;101397.00;;;;10512325;28;20279;-82
2022/04/10 03:25:50;;;;;;;16.67;7.30;;;;;2.60;101396.00;;;;10508178;28;20670;-81
2022/04/10 03:31:11;;;;;;;13.73;6.93;;;;;2.50;101391.00;;;;10515217;28;20225;-82
2022/04/10 03:36:32;;;;;;;12.53;6.73;;;;;2.50;101403.00;;;;10520054;28;20639;-81
2022/04/10 03:41:53;;;;;;;14.67;7.27;;;;;2.30;101403.00;;;;10543757;28;20703;-81
2022/04/10 03:47:14;;;;;;;14.17;7.93;;;;;2.20;101401.00;;;;10536514;28;20193;-81
2022/04/10 03:52:35;;;;;;;16.20;8.03;;;;;2.10;101405.00;;;;10512364;27;20200;-82
2022/04/10 03:57:57;;;;;;;14.83;7.97;;;;;2.10;101410.00;;;;10558800;28;20219;-81
2022/04/10 04:03:17;;;;;;;13.30;7.63;;;;;2.10;101413.00;;;;10537534;28;20200;-82
2022/04/10 04:08:41;;;;;;;13.73;7.80;;;;;2.00;101413.00;;;;10560216;28;20243;-81
2022/04/10 04:14:03;;;;;;;18.27;8.43;;;;;1.90;101410.00;;;;10567398;28;20639;-81
2022/04/10 04:19:24;;;;;;;19.13;8.83;;;;;1.90;101406.00;;;;10544072;28;20194;-81
2022/04/10 04:24:45;;;;;;;17.40;10.20;;;;;1.90;101423.00;;;;10549450;28;20197;-82
2022/04/10 04:30:07;;;;;;;13.83;9.13;;;;;1.80;101414.00;;;;10544585;28;20651;-81
2022/04/10 04:35:30;;;;;;;14.20;9.10;;;;;1.80;101422.00;;;;10518861;28;20578;-81
2022/04/10 04:40:53;;;;;;;18.50;9.67;;;;;1.70;101425.00;;;;10550318;28;20208;-81
2022/04/10 04:46:14;;;;;;;20.67;9.97;;;;;1.80;101424.00;;;;10513761;28;20251;-81
2022/04/10 04:51:36;;;;;;;17.93;9.30;;;;;1.80;101418.00;;;;10521119;27;20180;-81
2022/04/10 04:56:59;;;;;;;17.33;9.17;;;;;1.80;101431.00;;;;10517437;28;20211;-81
2022/04/10 05:02:26;;;;;;;18.63;10.10;;;;;1.90;101442.00;;;;10568741;28;20609;-80
2022/04/10 05:07:47;;;;;;;18.13;11.00;;;;;2.00;101456.00;;;;10517622;28;20275;-81
2022/04/10 05:13:08;;;;;;;22.03;11.37;;;;;2.10;101457.00;;;;10566713;28;20176;-81
2022/04/10 05:18:30;;;;;;;17.10;10.40;;;;;2.30;101451.00;;;;10552937;28;20211;-81
2022/04/10 05:23:51;;;;;;;21.07;10.73;;;;;2.40;101463.00;;;;10581406;27;20196;-81
2022/04/10 05:29:13;;;;;;;19.90;10.30;;;;;2.60;101467.00;;;;10589531;27;20271;-81
2022/04/10 05:34:33;;;;;;;20.53;9.97;;;;;2.90;101471.00;;;;10550644;28;20314;-81
2022/04/10 05:39:53;;;;;;;21.67;10.43;;;;;3.30;101482.00;;;;10552589;28;20291;-82
2022/04/10 05:45:15;;;;;;;19.03;10.83;;;;;3.80;101491.00;;;;10568345;28;20196;-81
2022/04/10 05:50:42;;;;;;;17.03;10.93;;;;;4.40;101485.00;;;;10526834;27;20224;-81
2022/04/10 05:56:03;;;;;;;22.93;11.10;;;;;4.80;101499.00;;;;10533732;27;20185;-81
2022/04/10 06:01:29;;;;;;;13.10;8.67;;;;;5.00;101504.00;;;;10546476;28;20216;-81
2022/04/10 06:06:50;;;;;;;15.10;9.73;;;;;5.30;101510.00;;;;10539132;28;20547;-81
2022/04/10 06:12:18;;;;;;;15.93;9.53;;;;;5.60;101520.00;;;;10556859;28;20195;-81
2022/04/10 06:17:41;;;;;;;15.83;9.27;;;;;6.00;101515.00;;;;10510133;28;20652;-81
2022/04/10 06:22:43;;;;;;;19.17;10.00;;;;;6.40;101526.00;;;;10508874;28;20675;-81
2022/04/10 06:27:47;;;;;;;23.13;14.27;;;;;6.80;101531.00;;;;10495393;28;20731;-81
2022/04/10 06:32:50;;;;;;;21.27;11.00;;;;;7.50;101528.00;;;;10518683;28;20196;-81
2022/04/10 06:37:52;;;;;;;13.90;9.10;;;;;7.80;101538.00;;;;10526717;28;20208;-81
2022/04/10 06:42:55;;;;;;;15.90;8.40;;;;;8.30;101539.00;;;;10504884;28;20247;-81
2022/04/10 06:48:26;;;;;;;15.00;9.30;;;;;8.70;101539.00;;;;10507221;28;20204;-81
2022/04/10 06:53:27;;;;;;;22.77;13.53;;;;;9.10;101549.00;;;;10517375;27;20243;-81
2022/04/10 06:58:33;;;;;;;15.30;9.53;;;;;9.40;101549.00;;;;10532456;28;20202;-81
2022/04/10 07:03:36;;;;;;;14.80;8.27;;;;;9.70;101555.00;;;;10493314;28;20213;-81
2022/04/10 07:08:43;;;;;;;22.83;10.73;;;;;10.00;101553.00;;;;10533822;28;20199;-81
2022/04/10 07:13:45;;;;;;;21.43;14.63;;;;;10.30;101565.00;;;;10513081;28;20188;-80
2022/04/10 07:18:48;;;;;;;14.57;8.30;;;;;10.70;101564.00;;;;10523525;28;20223;-81
2022/04/10 07:23:54;;;;;;;14.60;8.43;;;;;11.10;101561.00;;;;10490400;28;20211;-81
2022/04/10 07:29:03;;;;;;;13.60;8.37;;;;;11.50;101572.00;;;;10497129;28;20200;-81
2022/04/10 07:34:05;;;;;;;14.53;8.97;;;;;11.70;101583.00;;;;10505535;28;20202;-81
2022/04/10 07:39:36;;;;;;;12.97;7.63;;;;;12.10;101586.00;;;;10518624;28;20213;-81
2022/04/10 07:44:56;;;;;;;12.73;7.17;;;;;12.50;101587.00;;;;10534089;28;20220;-82
2022/04/10 07:50:04;;;;;;;11.40;7.10;;;;;12.80;101594.00;;;;10523114;28;20188;-81
2022/04/10 07:55:07;;;;;;;10.90;6.63;;;;;13.10;101599.00;;;;10500953;28;20635;-81
2022/04/10 08:00:17;;;;;;;15.13;6.83;;;;;13.30;101603.00;;;;10519617;28;20189;-81
2022/04/10 08:05:34;;;;;;;10.87;6.23;;;;;13.60;101602.00;;;;10524251;28;20196;-81
2022/04/10 08:10:51;;;;;;;9.57;5.93;;;;;14.00;101609.00;;;;10475860;28;20196;-81
2022/04/10 08:15:54;;;;;;;9.97;5.73;;;;;14.20;101615.00;;;;10564170;28;20258;-80
2022/04/10 08:20:56;;;;;;;10.90;5.73;;;;;14.40;101618.00;;;;10525541;28;20207;-81
2022/04/10 08:25:58;;;;;;;10.63;6.30;;;;;14.60;101602.00;;;;10514168;28;20193;-81
2022/04/10 08:31:00;;;;;;;10.73;5.43;;;;;14.70;101619.00;;;;10532051;28;20189;-80
2022/04/10 08:36:04;;;;;;;12.30;6.03;;;;;14.80;101627.00;;;;10533378;28;20199;-81
2022/04/10 08:41:07;;;;;;;9.60;5.50;;;;;15.00;101624.00;;;;10527977;28;20215;-81
2022/04/10 08:46:12;;;;;;;9.30;5.83;;;;;15.10;101622.00;;;;10512447;28;20205;-81
2022/04/10 08:51:14;;;;;;;8.40;4.60;;;;;15.20;101625.00;;;;10575163;27;20217;-81
2022/04/10 08:56:16;;;;;;;7.38;3.22;;;;;15.60;101637.00;;;;10552537;27;20249;-80
2022/04/10 09:01:19;;;;;;;5.72;3.22;;;;;16.10;101634.00;;;;10508998;27;20218;-80
2022/04/10 09:06:21;;;;;;;7.63;4.35;;;;;16.50;101636.00;;;;10513407;28;20196;-81
2022/04/10 09:11:29;;;;;;;5.22;3.70;;;;;16.60;101644.00;;;;10560309;28;20275;-81
2022/04/10 09:16:32;;;;;;;9.07;3.95;;;;;16.40;101639.00;;;;10527002;27;20205;-82
2022/04/10 09:21:35;;;;;;;8.85;4.90;;;;;16.50;101634.00;;;;10528772;27;20204;-82
2022/04/10 09:26:51;;;;;;;6.28;4.50;;;;;17.00;101633.00;;;;10533675;27;20193;-81
2022/04/10 09:31:54;;;;;;;6.03;3.72;;;;;17.50;101629.00;;;;10492596;28;20192;-81
2022/04/10 09:37:05;;;;;;;4.65;3.67;;;;;18.00;101638.00;;;;10516590;28;20217;-81
2022/04/10 09:42:10;;;;;;;4.13;2.80;;;;;18.00;101629.00;;;;10548944;28;20597;-81
2022/04/10 09:47:32;;;;;;;6.00;3.85;;;;;18.20;101631.00;;;;10544639;28;20670;-80
2022/04/10 09:52:37;;;;;;;6.68;3.38;;;;;18.60;101623.00;;;;10550081;27;20192;-81
2022/04/10 09:57:51;;;;;;;5.20;2.80;;;;;18.80;101629.00;;;;10582773;27;20191;-79
2022/04/10 10:02:53;;;;;;;5.82;3.00;;;;;18.50;101631.00;;;;10557356;28;20238;-81
2022/04/10 10:07:56;;;;;;;4.65;3.10;;;;;18.70;101633.00;;;;10553183;28;20205;-81
2022/04/10 10:13:00;;;;;;;4.30;3.00;;;;;16.20;101641.00;;;;10499194;28;20276;-81
2022/04/10 10:18:12;;;;;;;5.65;2.90;;;;;15.10;101631.00;;;;10517002;28;20200;-80
2022/04/10 10:23:14;;;;;;;6.32;3.28;;;;;15.70;101622.00;;;;10509071;27;20207;-81
2022/04/10 10:28:35;;;;;;;7.30;3.35;;;;;17.20;101623.00;;;;10521109;28;20196;-80
2022/04/10 10:33:38;;;;;;;5.43;2.90;;;;;18.50;101618.00;;;;10528787;28;20193;-80
2022/04/10 10:38:50;;;;;;;3.45;3.05;;;;;19.40;101616.00;;;;10494049;28;20736;-81
2022/04/10 10:43:55;;;;;;;6.90;3.20;;;;;20.20;101612.00;;;;10490588;28;20242;-80
2022/04/10 10:49:14;;;;;;;4.82;2.33;;;;;19.30;101613.00;;;;10507362;28;20245;-81
2022/04/10 10:54:26;;;;;;;7.05;3.40;;;;;18.40;101591.00;;;;10529481;28;20200;-80
2022/04/10 10:59:32;;;;;;;6.43;3.45;;;;;18.00;101597.00;;;;10514923;28;20215;-80
2022/04/10 11:04:39;;;;;;;5.03;2.92;;;;;18.50;101594.00;;;;10542782;28;20698;-80
2022/04/10 11:10:24;;;;;;;5.75;2.92;;;;;19.20;101608.00;;;;10538404;28;20261;-78
2022/04/10 11:15:51;;;;;;;5.18;2.90;;;;;19.00;101594.00;;;;10553026;28;20636;-81
2022/04/10 11:20:55;;;;;;;4.78;2.88;;;;;19.70;101586.00;;;;10571112;27;20199;-81
2022/04/10 11:26:07;;;;;;;8.20;2.90;;;;;20.30;101587.00;;;;10557234;27;20196;-79
2022/04/10 11:31:47;;;;;;;4.22;2.60;;;;;20.60;101580.00;;;;10550630;28;20177;-78
2022/04/10 11:36:56;;;;;;;6.38;2.80;;;;;19.10;101596.00;;;;10497569;28;20212;-78
2022/04/10 11:42:06;;;;;;;5.13;2.22;;;;;17.30;101583.00;;;;10540186;28;20200;-78
2022/04/10 11:47:11;;;;;;;4.65;2.67;;;;;18.70;101583.00;;;;10534956;28;20195;-79
2022/04/10 11:52:18;;;;;;;5.38;3.20;;;;;19.00;101584.00;;;;10505714;28;20191;-79
2022/04/10 11:57:20;;;;;;;4.20;2.67;;;;;17.00;101581.00;;;;10533428;28;20257;-79
2022/04/10 12:02:23;;;;;;;3.65;2.40;;;;;15.80;101579.00;;;;10556119;28;20604;-79
2022/04/10 12:07:25;;;;;;;5.50;2.53;;;;;15.30;101577.00;;;;10519881;28;20236;-79
2022/04/10 12:12:36;;;;;;;5.03;2.15;;;;;17.90;101547.00;;;;10501186;28;20191;-79
2022/04/10 12:17:38;;;;;;;7.78;2.47;;;;;19.40;101536.00;;;;10530580;28;20647;-79
2022/04/10 12:23:01;;;;;;;5.75;2.17;;;;;18.40;101555.00;;;;10536622;28;20316;-79
2022/04/10 12:28:04;;;;;;;5.45;2.63;;;;;17.90;101556.00;;;;10557065;28;20739;-79
2022/04/10 12:33:06;;;;;;;8.90;2.58;;;;;19.00;101547.00;;;;10533451;28;20193;-79
2022/04/10 12:38:08;;;;;;;3.15;2.40;;;;;19.80;101530.00;;;;10499013;28;20243;-79
2022/04/10 12:43:12;;;;;;;6.93;2.60;;;;;20.50;101542.00;;;;10539039;28;20594;-80
2022/04/10 12:48:20;;;;;;;5.30;2.20;;;;;21.30;101529.00;;;;10540534;28;20221;-79
2022/04/10 12:53:23;;;;;;;3.22;2.70;;;;;21.00;101548.00;;;;10523375;28;20187;-79
2022/04/10 12:58:29;;;;;;;3.33;2.10;;;;;20.00;101540.00;;;;10536643;28;20283;-78
2022/04/10 13:03:31;;;;;;;4.88;2.65;;;;;20.90;101523.00;;;;10508814;28;20200;-79
2022/04/10 13:08:37;;;;;;;5.90;2.47;;;;;21.30;101524.00;;;;10521067;28;20193;-79
2022/04/10 13:14:03;;;;;;;3.00;2.50;;;;;20.00;101526.00;;;;10537192;28;20422;-80
2022/04/10 13:19:10;;;;;;;3.45;2.10;;;;;17.90;101518.00;;;;10536736;28;20241;-79
2022/04/10 13:24:13;;;;;;;4.95;2.65;;;;;18.90;101520.00;;;;10559837;27;20212;-80
2022/04/10 13:29:17;;;;;;;3.50;2.15;;;;;18.20;101519.00;;;;10531395;28;20189;-81
2022/04/10 13:34:22;;;;;;;4.85;2.92;;;;;17.10;101518.00;;;;10542490;27;20214;-79
2022/04/10 13:39:24;;;;;;;6.05;3.38;;;;;16.50;101520.00;;;;10533328;28;20690;-79
2022/04/10 13:44:26;;;;;;;5.57;2.58;;;;;16.20;101505.00;;;;10533087;28;20228;-81
2022/04/10 13:49:28;;;;;;;3.80;2.53;;;;;16.50;101494.00;;;;10519737;28;20221;-80
2022/04/10 13:54:30;;;;;;;4.38;2.80;;;;;19.80;101452.00;;;;10539312;28;20212;-82
2022/04/10 13:59:32;;;;;;;7.32;2.90;;;;;24.90;101451.00;;;;10554402;28;20218;-79
2022/04/10 14:04:35;;;;;;;7.15;4.13;;;;;26.70;101454.00;;;;10543900;27;20208;-79
2022/04/10 14:09:38;;;;;;;3.80;1.95;;;;;26.80;101460.00;;;;10558698;28;20199;-79
2022/04/10 14:14:40;;;;;;;4.97;2.95;;;;;26.10;101481.00;;;;10512919;28;20193;-80
2022/04/10 14:19:42;;;;;;;9.82;2.90;;;;;26.30;101442.00;;;;10499100;28;20271;-79
2022/04/10 14:24:44;;;;;;;3.92;2.00;;;;;22.40;101476.00;;;;10525225;27;20271;-82
2022/04/10 14:29:50;;;;;;;5.60;2.55;;;;;20.20;101478.00;;;;10562465;27;20196;-81
2022/04/10 14:34:52;;;;;;;5.13;2.25;;;;;25.70;101422.00;;;;10533943;27;20395;-79
2022/04/10 14:39:54;;;;;;;3.13;2.20;;;;;26.50;101429.00;;;;10516097;28;20239;-81
2022/04/10 14:44:56;;;;;;;5.63;2.45;;;;;24.30;101440.00;;;;10558649;27;20229;-81
2022/04/10 14:49:58;;;;;;;3.65;2.40;;;;;21.80;101457.00;;;;10581937;27;20222;-81
2022/04/10 14:55:00;;;;;;;4.55;2.28;;;;;19.40;101449.00;;;;10598329;27;20278;-81
2022/04/10 15:00:03;;;;;;;5.78;2.60;;;;;17.80;101447.00;;;;10563687;27;20255;-81
2022/04/10 15:05:06;;;;;;;5.97;2.63;;;;;17.40;101436.00;;;;10582919;27;20279;-81
2022/04/10 15:10:09;;;;;;;5.63;2.85;;;;;18.60;101433.00;;;;10581937;27;20562;-80
2022/04/10 15:15:11;;;;;;;5.22;2.33;;;;;18.40;101418.00;;;;10579155;27;20274;-80
2022/04/10 15:20:14;;;;;;;3.80;2.20;;;;;19.60;101422.00;;;;10562698;27;20213;-80
2022/04/10 15:25:16;;;;;;;3.83;2.75;;;;;17.80;101423.00;;;;10498862;28;20217;-80
2022/04/10 15:30:18;;;;;;;4.77;2.30;;;;;16.30;101429.00;;;;10506931;28;20193;-80
2022/04/10 15:35:19;;;;;;;3.57;2.33;;;;;15.40;101416.00;;;;10507001;28;20254;-80
2022/04/10 15:40:21;;;;;;;4.17;2.30;;;;;15.20;101422.00;;;;10523331;28;20259;-80
2022/04/10 15:45:26;;;;;;;5.07;2.80;;;;;15.20;101406.00;;;;10515040;28;20898;-79
2022/04/10 15:50:28;;;;;;;4.77;3.00;;;;;15.20;101404.00;;;;10531673;28;20249;-79
2022/04/10 15:55:30;;;;;;;3.33;2.70;;;;;15.20;101400.00;;;;10551065;28;20184;-77
2022/04/10 16:00:32;;;;;;;4.87;2.57;;;;;15.00;101402.00;;;;10584320;28;20649;-80
2022/04/10 16:05:34;;;;;;;5.47;2.40;;;;;14.70;101402.00;;;;10564100;28;20574;-79
2022/04/10 16:10:36;;;;;;;4.10;2.77;;;;;14.50;101401.00;;;;10546880;28;20200;-79
2022/04/10 16:15:38;;;;;;;6.17;2.90;;;;;14.40;101394.00;;;;10562797;28;20599;-79
2022/04/10 16:20:40;;;;;;;5.07;2.67;;;;;14.40;101396.00;;;;10547699;28;20223;-79
2022/04/10 16:25:42;;;;;;;4.40;2.40;;;;;14.50;101395.00;;;;10562583;28;20238;-79
2022/04/10 16:30:45;;;;;;;12.03;2.93;;;;;14.50;101390.00;;;;10562606;28;20196;-78
2022/04/10 16:35:47;;;;;;;8.80;2.93;;;;;14.40;101398.00;;;;10546681;28;20188;-78
2022/04/10 16:40:49;;;;;;;4.70;3.00;;;;;14.30;101400.00;;;;10571715;28;20209;-78
2022/04/10 16:45:51;;;;;;;4.47;2.70;;;;;14.30;101397.00;;;;10522800;28;20270;-79
2022/04/10 16:50:54;;;;;;;4.80;2.57;;;;;14.30;101398.00;;;;10541396;27;20215;-78
2022/04/10 16:55:57;;;;;;;4.13;2.40;;;;;14.30;101388.00;;;;10512177;28;20242;-79
2022/04/10 17:01:00;;;;;;;5.47;2.73;;;;;14.20;101396.00;;;;10513378;28;20205;-78
2022/04/10 17:06:03;;;;;;;6.87;2.90;;;;;14.00;101392.00;;;;10494211;28;20220;-79
2022/04/10 17:11:05;;;;;;;7.90;3.20;;;;;13.80;101395.00;;;;10507543;27;20582;-79
2022/04/10 17:16:07;;;;;;;5.40;2.80;;;;;13.50;101399.00;;;;10552260;28;20276;-78
2022/04/10 17:21:09;;;;;;;4.17;2.40;;;;;13.10;101394.00;;;;10536099;28;20275;-77
2022/04/10 17:26:11;;;;;;;3.77;2.10;;;;;12.80;101402.00;;;;10572885;28;20204;-79
2022/04/10 17:31:13;;;;;;;5.70;2.40;;;;;12.60;101402.00;;;;10542199;28;20204;-79
2022/04/10 17:36:15;;;;;;;4.97;2.23;;;;;12.30;101399.00;;;;10538316;28;20188;-78
2022/04/10 17:41:17;;;;;;;6.60;2.93;;;;;12.10;101397.00;;;;10575136;28;20208;-78
2022/04/10 17:46:20;;;;;;;4.23;2.47;;;;;11.90;101403.00;;;;10552452;28;20214;-78
2022/04/10 17:51:23;;;;;;;5.07;2.57;;;;;11.70;101403.00;;;;10529569;28;20227;-78
2022/04/10 17:56:25;;;;;;;3.13;2.53;;;;;11.50;101407.00;;;;10526673;28;20189;-79
2022/04/10 18:01:27;;;;;;;6.80;2.70;;;;;11.40;101415.00;;;;10509522;28;20200;-79
2022/04/10 18:06:29;;;;;;;4.23;2.40;;;;;11.20;101410.00;;;;10531000;28;20708;-79
2022/04/10 18:11:34;;;;;;;8.73;2.87;;;;;11.10;101406.00;;;;10510952;28;20930;-78
2022/04/10 18:16:36;;;;;;;6.77;2.73;;;;;10.90;101400.00;;;;10510016;28;20203;-79
2022/04/10 18:21:40;;;;;;;4.83;2.73;;;;;10.70;101406.00;;;;10513050;27;20203;-78
2022/04/10 18:26:42;;;;;;;5.60;2.50;;;;;10.60;101405.00;;;;10593781;27;20611;-78
2022/04/10 18:31:44;;;;;;;6.63;2.63;;;;;10.50;101398.00;;;;10529582;28;20666;-78
2022/04/10 18:36:46;;;;;;;3.50;2.50;;;;;10.40;101394.00;;;;10518327;28;20207;-79
2022/04/10 18:41:48;;;;;;;4.90;2.47;;;;;10.40;101398.00;;;;10517925;28;20201;-79
2022/04/10 18:46:51;;;;;;;5.07;2.67;;;;;10.30;101391.00;;;;10492481;28;20192;-79
2022/04/10 18:51:55;;;;;;;7.27;2.93;;;;;10.20;101394.00;;;;10491268;28;20243;-79
2022/04/10 18:56:57;;;;;;;9.40;3.50;;;;;10.00;101400.00;;;;10549542;28;20193;-79
2022/04/10 19:02:26;;;;;;;6.17;3.43;;;;;9.80;101390.00;;;;10528346;28;20200;-78
2022/04/10 19:07:47;;;;;;;7.80;4.07;;;;;9.50;101395.00;;;;10524731;28;20215;-78
2022/04/10 19:13:08;;;;;;;9.13;3.83;;;;;9.40;101422.00;;;;10531877;28;20207;-78
2022/04/10 19:18:20;;;;;;;7.00;3.37;;;;;9.10;101412.00;;;;10506661;28;20245;-78
2022/04/10 19:23:26;;;;;;;5.53;3.40;;;;;9.00;101415.00;;;;10544019;27;20212;-77
2022/04/10 19:28:31;;;;;;;7.47;4.10;;;;;8.80;101413.00;;;;10576708;27;20183;-77
2022/04/10 19:33:40;;;;;;;8.83;3.87;;;;;8.50;101414.00;;;;10609858;27;20179;-77
2022/04/10 19:38:45;;;;;;;7.90;4.30;;;;;8.40;101409.00;;;;10515431;28;20248;-78
2022/04/10 19:43:47;;;;;;;9.00;4.20;;;;;8.30;101413.00;;;;10489768;28;20262;-78
2022/04/10 19:48:57;;;;;;;8.73;4.90;;;;;8.20;101418.00;;;;10519867;28;20192;-79
2022/04/10 19:54:03;;;;;;;11.43;4.83;;;;;8.10;101415.00;;;;10580685;28;20187;-78
2022/04/10 19:59:14;;;;;;;11.67;5.07;;;;;8.00;101417.00;;;;10596043;28;20172;-78
2022/04/10 20:04:18;;;;;;;11.77;5.20;;;;;8.00;101417.00;;;;10595080;28;20230;-78
2022/04/10 20:09:21;;;;;;;6.93;4.93;;;;;8.00;101424.00;;;;10576354;28;20539;-79
2022/04/10 20:14:23;;;;;;;10.13;5.13;;;;;8.00;101425.00;;;;10556954;28;20241;-78
2022/04/10 20:19:25;;;;;;;11.00;6.30;;;;;8.00;101422.00;;;;10573356;27;20191;-77
2022/04/10 20:24:27;;;;;;;10.43;5.97;;;;;8.00;101431.00;;;;10529946;28;20220;-78
2022/04/10 20:29:29;;;;;;;9.40;5.63;;;;;7.90;101418.00;;;;10512520;28;20239;-78
2022/04/10 20:34:31;;;;;;;10.33;5.73;;;;;7.90;101419.00;;;;10508464;28;20291;-78
2022/04/10 20:39:33;;;;;;;9.60;5.83;;;;;7.90;101406.00;;;;10495650;28;20651;-78
2022/04/10 20:44:35;;;;;;;10.10;6.33;;;;;7.80;101397.00;;;;10559540;27;20211;-79
2022/04/10 20:49:37;;;;;;;14.83;9.50;;;;;7.70;101388.00;;;;10553903;28;20192;-78
2022/04/10 20:54:46;;;;;;;12.20;7.80;;;;;7.50;101386.00;;;;10545762;28;20180;-78
2022/04/10 20:59:55;;;;;;;9.77;7.43;;;;;7.30;101384.00;;;;10495937;28;20192;-77
2022/04/10 21:05:03;;;;;;;8.13;7.17;;;;;7.20;101382.00;;;;10514588;27;20201;-78
2022/04/10 21:10:09;;;;;;;9.67;6.53;;;;;7.10;101388.00;;;;10509731;28;20241;-77
2022/04/10 21:15:15;;;;;;;8.37;6.80;;;;;7.00;101374.00;;;;10538498;28;20242;-78
2022/04/10 21:20:18;;;;;;;9.83;7.47;;;;;6.90;101375.00;;;;10535061;28;20196;-78
2022/04/10 21:25:20;;;;;;;10.20;7.50;;;;;6.80;101372.00;;;;10527035;28;20680;-77
2022/04/10 21:30:22;;;;;;;11.67;7.03;;;;;6.80;101375.00;;;;10558005;28;20226;-78
2022/04/10 21:35:25;;;;;;;7.93;6.80;;;;;6.80;101373.00;;;;10568253;28;20193;-78
2022/04/10 21:40:27;;;;;;;9.83;6.67;;;;;6.80;101365.00;;;;10546227;28;20421;-77
2022/04/10 21:45:29;;;;;;;14.50;6.53;;;;;6.80;101370.00;;;;10503928;28;20678;-78
2022/04/10 21:50:31;;;;;;;8.40;6.10;;;;;6.80;101370.00;;;;10550880;28;20672;-78
2022/04/10 21:55:33;;;;;;;8.80;6.50;;;;;6.90;101364.00;;;;10491674;28;20204;-79
2022/04/10 22:00:35;;;;;;;10.17;6.27;;;;;6.90;101362.00;;;;10495664;28;20547;-78
2022/04/10 22:05:37;;;;;;;8.27;6.27;;;;;7.00;101360.00;;;;10536092;28;20216;-78
2022/04/10 22:10:39;;;;;;;13.50;7.00;;;;;7.00;101359.00;;;;10508066;28;20200;-78
2022/04/10 22:15:43;;;;;;;10.83;6.80;;;;;7.00;101364.00;;;;10507527;28;20178;-78
2022/04/10 22:20:45;;;;;;;8.03;6.07;;;;;7.10;101364.00;;;;10508665;27;20654;-78
2022/04/10 22:25:47;;;;;;;11.10;6.73;;;;;7.10;101358.00;;;;10551896;27;20199;-79
2022/04/10 22:30:49;;;;;;;10.13;6.47;;;;;7.10;101346.00;;;;10583677;27;20207;-78
2022/04/10 22:35:51;;;;;;;11.60;6.60;;;;;7.10;101347.00;;;;10565704;27;20277;-78
2022/04/10 22:40:54;;;;;;;13.80;7.20;;;;;7.10;101344.00;;;;10550106;27;20263;-78
2022/04/10 22:45:56;;;;;;;11.07;6.90;;;;;7.10;101351.00;;;;10543009;27;20211;-78
2022/04/10 22:50:58;;;;;;;11.67;7.57;;;;;7.20;101345.00;;;;10545709;28;20201;-77
2022/04/10 22:56:00;;;;;;;10.53;6.77;;;;;7.30;101355.00;;;;10506236;28;20303;-78
2022/04/10 23:01:02;;;;;;;12.73;7.30;;;;;7.30;101342.00;;;;10508297;28;20258;-77
2022/04/10 23:06:04;;;;;;;13.83;6.57;;;;;7.40;101345.00;;;;10532275;28;20231;-78
2022/04/10 23:11:06;;;;;;;8.93;6.60;;;;;7.40;101329.00;;;;10516157;28;20191;-78
2022/04/10 23:16:08;;;;;;;9.07;6.60;;;;;7.40;101332.00;;;;10548933;28;20216;-78
2022/04/10 23:21:13;;;;;;;11.43;6.93;;;;;7.40;101329.00;;;;10553698;27;20253;-79
2022/04/10 23:26:15;;;;;;;10.23;6.20;;;;;7.40;101316.00;;;;10567676;27;20318;-78
2022/04/10 23:31:17;;;;;;;11.50;7.00;;;;;7.40;101314.00;;;;10500514;28;20219;-78
2022/04/10 23:36:19;;;;;;;11.63;6.87;;;;;7.30;101299.00;;;;10505480;28;20189;-78
2022/04/10 23:41:21;;;;;;;11.43;7.10;;;;;7.30;101306.00;;;;10489482;28;20242;-78
2022/04/10 23:46:23;;;;;;;8.87;7.03;;;;;7.20;101293.00;;;;10506713;28;20216;-78
2022/04/10 23:51:25;;;;;;;13.07;7.17;;;;;7.20;101291.00;;;;10530875;28;20202;-78
2022/04/10 23:56:27;;;;;;;9.70;6.83;;;;;7.10;101295.00;;;;10533815;28;20192;-77
